createdAt,value
2018-02-13T00:00:22.725Z,3.01
2018-02-13T00:02:55.244Z,3.09
2018-02-13T00:05:27.740Z,3.15
2018-02-13T00:08:00.270Z,3.13
2018-02-13T00:10:32.790Z,3.14
2018-02-13T00:13:05.302Z,3.08
2018-02-13T00:15:37.871Z,3.10
2018-02-13T00:18:10.375Z,3.10
2018-02-13T00:20:42.901Z,3.08
2018-02-13T00:23:16.336Z,3.06
2018-02-13T00:25:48.932Z,3.06
2018-02-13T00:28:21.429Z,3.11
2018-02-13T00:30:53.953Z,3.13
2018-02-13T00:33:26.455Z,3.10
2018-02-13T00:35:58.973Z,3.09
2018-02-13T00:38:31.471Z,3.01
2018-02-13T00:41:03.996Z,3.05
2018-02-13T00:43:36.551Z,3.13
2018-02-13T00:46:09.075Z,3.13
2018-02-13T00:48:41.583Z,3.14
2018-02-13T00:51:14.098Z,3.11
2018-02-13T00:53:46.604Z,3.10
2018-02-13T00:56:19.119Z,3.09
2018-02-13T00:58:51.618Z,3.09
2018-02-13T01:01:24.132Z,3.11
2018-02-13T01:03:57.265Z,3.09
2018-02-13T01:06:29.787Z,3.10
2018-02-13T01:09:02.299Z,3.10
2018-02-13T01:11:34.821Z,3.09
2018-02-13T01:14:07.332Z,3.07
2018-02-13T01:16:39.857Z,3.04
2018-02-13T01:19:12.352Z,2.97
2018-02-13T01:21:44.892Z,2.96
2018-02-13T01:24:17.388Z,2.95
2018-02-13T01:26:49.914Z,2.90
2018-02-13T01:29:22.414Z,2.92
2018-02-13T01:31:54.937Z,2.94
2018-02-13T01:34:27.446Z,2.92
2018-02-13T01:36:59.976Z,2.79
2018-02-13T01:39:32.476Z,2.79
2018-02-13T01:42:05.022Z,2.82
2018-02-13T01:44:37.523Z,2.74
2018-02-13T01:47:10.049Z,2.69
2018-02-13T01:49:42.555Z,2.72
2018-02-13T01:52:15.093Z,2.73
2018-02-13T01:54:48.429Z,2.76
2018-02-13T01:57:20.947Z,2.84
2018-02-13T01:59:53.441Z,2.84
2018-02-13T02:02:25.961Z,2.73
2018-02-13T02:04:58.491Z,2.72
2018-02-13T02:07:30.998Z,2.74
2018-02-13T02:10:03.503Z,2.68
2018-02-13T02:12:36.025Z,2.71
2018-02-13T02:15:08.706Z,2.71
2018-02-13T02:17:41.271Z,2.72
2018-02-13T02:20:13.796Z,2.69
2018-02-13T02:22:46.311Z,2.69
2018-02-13T02:25:18.830Z,2.64
2018-02-13T02:27:51.348Z,2.65
2018-02-13T02:30:23.842Z,2.66
2018-02-13T02:32:56.995Z,2.63
2018-02-13T02:35:29.556Z,2.57
2018-02-13T02:38:02.116Z,2.59
2018-02-13T02:40:34.620Z,2.57
2018-02-13T02:43:07.313Z,2.52
2018-02-13T02:45:39.807Z,2.53
2018-02-13T02:48:12.332Z,2.56
2018-02-13T02:50:44.830Z,2.55
2018-02-13T02:53:17.355Z,2.49
2018-02-13T02:55:49.861Z,2.49
2018-02-13T02:58:22.457Z,2.49
2018-02-13T03:00:54.953Z,2.48
2018-02-13T03:03:27.483Z,2.51
2018-02-13T03:05:59.982Z,2.50
2018-02-13T03:08:32.512Z,2.51
2018-02-13T03:11:05.034Z,2.49
2018-02-13T03:13:37.587Z,2.49
2018-02-13T03:16:10.113Z,2.48
2018-02-13T03:18:42.631Z,2.49
2018-02-13T03:21:15.131Z,2.47
2018-02-13T03:23:47.643Z,2.49
2018-02-13T03:26:20.157Z,2.43
2018-02-13T03:28:52.681Z,2.39
2018-02-13T03:31:26.321Z,2.43
2018-02-13T03:33:59.446Z,2.42
2018-02-13T03:36:31.946Z,2.43
2018-02-13T03:39:04.472Z,2.39
2018-02-13T03:41:36.978Z,2.39
2018-02-13T03:44:09.518Z,2.43
2018-02-13T03:46:42.032Z,2.41
2018-02-13T03:49:14.567Z,2.39
2018-02-13T03:51:47.139Z,2.37
2018-02-13T03:54:19.631Z,2.37
2018-02-13T03:56:52.144Z,2.38
2018-02-13T03:59:24.644Z,2.39
2018-02-13T04:01:57.171Z,2.41
2018-02-13T04:04:29.673Z,2.49
2018-02-13T04:07:02.245Z,2.47
2018-02-13T04:09:34.734Z,2.38
2018-02-13T04:12:07.260Z,2.34
2018-02-13T04:14:39.765Z,2.36
2018-02-13T04:17:12.310Z,2.37
2018-02-13T04:19:44.802Z,2.43
2018-02-13T04:22:17.342Z,2.45
2018-02-13T04:24:49.855Z,2.29
2018-02-13T04:27:22.388Z,2.31
2018-02-13T04:29:54.899Z,2.29
2018-02-13T04:32:27.413Z,2.31
2018-02-13T04:34:59.914Z,2.37
2018-02-13T04:37:32.441Z,2.33
2018-02-13T04:40:04.950Z,2.29
2018-02-13T04:42:37.477Z,2.28
2018-02-13T04:45:09.984Z,2.15
2018-02-13T04:47:42.509Z,2.16
2018-02-13T04:50:15.015Z,2.12
2018-02-13T04:52:47.547Z,2.11
2018-02-13T04:55:20.047Z,2.01
2018-02-13T04:57:52.569Z,2.14
2018-02-13T05:00:25.069Z,2.25
2018-02-13T05:02:57.591Z,2.20
2018-02-13T05:05:30.081Z,2.23
2018-02-13T05:08:02.604Z,2.25
2018-02-13T05:10:35.091Z,2.25
2018-02-13T05:13:07.611Z,2.15
2018-02-13T05:15:40.104Z,2.24
2018-02-13T05:18:12.632Z,2.10
2018-02-13T05:20:45.141Z,2.22
2018-02-13T05:23:17.644Z,2.21
2018-02-13T05:25:50.145Z,2.23
2018-02-13T05:28:22.676Z,2.19
2018-02-13T05:30:55.180Z,2.16
2018-02-13T05:33:27.691Z,2.04
2018-02-13T05:36:00.196Z,2.06
2018-02-13T05:38:32.709Z,1.99
2018-02-13T05:41:05.204Z,2.00
2018-02-13T05:43:37.743Z,1.95
2018-02-13T05:46:10.265Z,2.06
2018-02-13T05:48:42.772Z,2.09
2018-02-13T05:51:15.266Z,2.16
2018-02-13T05:53:47.785Z,2.12
2018-02-13T05:56:20.287Z,2.13
2018-02-13T05:58:52.810Z,2.13
2018-02-13T06:01:25.298Z,2.14
2018-02-13T06:03:57.815Z,2.17
2018-02-13T06:06:30.308Z,2.12
2018-02-13T06:09:02.837Z,2.03
2018-02-13T06:11:35.329Z,2.09
2018-02-13T06:14:07.844Z,2.10
2018-02-13T06:16:40.342Z,2.12
2018-02-13T06:19:12.863Z,2.10
2018-02-13T06:21:45.368Z,2.05
2018-02-13T06:24:17.904Z,2.04
2018-02-13T06:26:50.401Z,2.11
2018-02-13T06:29:22.927Z,2.07
2018-02-13T06:31:55.432Z,2.08
2018-02-13T06:34:28.007Z,2.15
2018-02-13T06:37:00.504Z,2.21
2018-02-13T06:39:33.020Z,2.14
2018-02-13T06:42:05.525Z,2.03
2018-02-13T06:44:38.311Z,2.03
2018-02-13T06:47:10.825Z,2.05
2018-02-13T06:49:43.348Z,2.09
2018-02-13T06:52:17.901Z,2.16
2018-02-13T06:54:50.415Z,2.08
2018-02-13T06:57:22.912Z,2.10
2018-02-13T06:59:55.427Z,2.10
2018-02-13T07:02:27.933Z,2.11
2018-02-13T07:05:00.450Z,2.19
2018-02-13T07:07:32.956Z,2.31
2018-02-13T07:10:05.471Z,2.33
2018-02-13T07:12:39.952Z,2.30
2018-02-13T07:15:12.467Z,2.28
2018-02-13T07:17:47.570Z,2.29
2018-02-13T07:20:20.096Z,2.31
2018-02-13T07:22:52.611Z,2.35
2018-02-13T07:25:25.184Z,2.27
2018-02-13T07:27:57.715Z,2.37
2018-02-13T07:30:31.247Z,2.42
2018-02-13T07:33:03.759Z,2.55
2018-02-13T07:35:36.273Z,2.57
2018-02-13T07:38:08.792Z,2.60
2018-02-13T07:40:41.294Z,2.71
2018-02-13T07:43:13.825Z,2.69
2018-02-13T07:45:46.334Z,2.84
2018-02-13T07:48:18.922Z,2.84
2018-02-13T07:50:51.433Z,2.83
2018-02-13T07:53:24.057Z,2.81
2018-02-13T07:55:56.557Z,2.91
2018-02-13T07:58:29.300Z,3.19
2018-02-13T08:01:01.818Z,3.28
2018-02-13T08:03:34.350Z,3.35
2018-02-13T08:06:06.970Z,3.27
2018-02-13T08:08:40.212Z,3.44
2018-02-13T08:11:12.790Z,3.49
2018-02-13T08:13:45.320Z,3.38
2018-02-13T08:16:18.209Z,3.48
2018-02-13T08:18:50.828Z,3.52
2018-02-13T08:21:25.518Z,3.74
2018-02-13T08:23:58.259Z,3.81
2018-02-13T08:26:30.773Z,3.92
2018-02-13T08:29:03.377Z,3.84
2018-02-13T08:31:35.894Z,4.13
2018-02-13T08:34:08.415Z,4.40
2018-02-13T08:36:40.919Z,4.31
2018-02-13T08:39:13.446Z,4.15
2018-02-13T08:41:45.973Z,4.02
2018-02-13T08:44:18.545Z,4.23
2018-02-13T08:46:51.097Z,4.29
2018-02-13T08:49:23.659Z,4.74
2018-02-13T08:51:56.567Z,4.58
2018-02-13T08:54:29.097Z,4.87
2018-02-13T08:57:01.652Z,4.99
2018-02-13T08:59:34.163Z,5.21
2018-02-13T09:02:06.663Z,5.24
2018-02-13T09:04:39.204Z,5.32
2018-02-13T09:07:11.753Z,5.40
2018-02-13T09:09:44.275Z,5.61
2018-02-13T09:12:16.776Z,5.78
2018-02-13T09:14:49.307Z,6.09
2018-02-13T09:17:21.807Z,6.06
2018-02-13T09:19:54.383Z,6.30
2018-02-13T09:22:26.878Z,6.25
2018-02-13T09:24:59.443Z,6.00
2018-02-13T09:27:31.968Z,5.78
2018-02-13T09:30:04.496Z,5.81
2018-02-13T09:32:37.000Z,5.45
2018-02-13T09:35:09.531Z,5.65
2018-02-13T09:37:42.055Z,5.23
2018-02-13T09:40:14.578Z,5.66
2018-02-13T09:42:47.090Z,5.64
2018-02-13T09:45:19.626Z,5.68
2018-02-13T09:47:52.129Z,5.75
2018-02-13T09:50:24.644Z,5.69
2018-02-13T09:52:57.137Z,5.57
2018-02-13T09:55:29.661Z,5.34
2018-02-13T09:58:02.162Z,5.71
2018-02-13T10:00:34.903Z,5.53
2018-02-13T10:03:07.620Z,5.67
2018-02-13T10:05:40.153Z,5.68
2018-02-13T10:08:12.644Z,5.69
2018-02-13T10:10:45.162Z,5.78
2018-02-13T10:13:17.670Z,5.97
2018-02-13T10:15:50.184Z,6.14
2018-02-13T10:18:22.699Z,6.07
2018-02-13T10:20:55.251Z,6.08
2018-02-13T10:23:27.758Z,6.25
2018-02-13T10:26:00.284Z,6.04
2018-02-13T10:28:32.795Z,6.11
2018-02-13T10:31:05.320Z,6.30
2018-02-13T10:33:37.844Z,6.45
2018-02-13T10:36:10.365Z,6.37
2018-02-13T10:38:42.863Z,6.36
2018-02-13T10:41:15.390Z,6.42
2018-02-13T10:43:47.874Z,6.67
2018-02-13T10:46:20.417Z,6.62
2018-02-13T10:48:52.925Z,6.62
2018-02-13T10:51:25.449Z,6.79
2018-02-13T10:53:57.944Z,6.57
2018-02-13T10:56:30.466Z,6.73
2018-02-13T10:59:02.988Z,6.87
2018-02-13T11:01:37.534Z,6.46
2018-02-13T11:04:10.063Z,6.54
2018-02-13T11:06:42.556Z,6.76
2018-02-13T11:09:15.075Z,6.26
2018-02-13T11:11:47.577Z,6.68
2018-02-13T11:14:20.086Z,6.82
2018-02-13T11:16:52.590Z,7.04
2018-02-13T11:19:25.123Z,7.15
2018-02-13T11:21:57.618Z,7.27
2018-02-13T11:24:30.134Z,7.48
2018-02-13T11:27:02.636Z,7.63
2018-02-13T11:29:35.171Z,7.52
2018-02-13T11:32:07.666Z,7.57
2018-02-13T11:34:40.185Z,7.97
2018-02-13T11:37:12.688Z,8.57
2018-02-13T11:39:45.207Z,8.84
2018-02-13T11:42:17.703Z,9.25
2018-02-13T11:44:50.272Z,9.69
2018-02-13T11:47:22.766Z,9.98
2018-02-13T11:49:55.284Z,9.11
2018-02-13T11:52:27.775Z,8.88
2018-02-13T11:55:00.287Z,8.75
2018-02-13T11:57:32.776Z,8.67
2018-02-13T12:00:05.294Z,9.18
2018-02-13T12:02:37.784Z,10.13
2018-02-13T12:05:10.300Z,11.28
2018-02-13T12:07:42.790Z,10.71
2018-02-13T12:10:15.301Z,10.96
2018-02-13T12:12:47.802Z,11.62
2018-02-13T12:15:20.330Z,11.56
2018-02-13T12:17:52.822Z,10.48
2018-02-13T12:20:25.339Z,10.27
2018-02-13T12:22:57.833Z,9.66
2018-02-13T12:25:42.204Z,9.65
2018-02-13T12:28:14.675Z,9.23
2018-02-13T12:30:47.213Z,8.77
2018-02-13T12:33:19.739Z,8.58
2018-02-13T12:35:52.251Z,8.44
2018-02-13T12:38:24.735Z,8.51
2018-02-13T12:40:57.250Z,8.58
2018-02-13T12:43:29.808Z,8.61
2018-02-13T12:46:02.305Z,8.61
2018-02-13T12:48:34.802Z,8.43
2018-02-13T12:51:07.327Z,8.19
2018-02-13T12:53:39.820Z,8.04
2018-02-13T12:56:12.333Z,8.13
2018-02-13T12:58:44.821Z,8.15
2018-02-13T13:01:17.327Z,8.03
2018-02-13T13:03:49.822Z,7.86
2018-02-13T13:06:22.332Z,7.81
2018-02-13T13:08:54.830Z,7.86
2018-02-13T13:11:27.341Z,8.07
2018-02-13T13:13:59.832Z,7.93
2018-02-13T13:16:32.353Z,7.57
2018-02-13T13:19:04.860Z,7.87
2018-02-13T13:21:37.372Z,7.85
2018-02-13T13:24:09.861Z,8.10
2018-02-13T13:26:42.363Z,8.09
2018-02-13T13:29:14.857Z,8.15
2018-02-13T13:31:47.373Z,8.25
2018-02-13T13:34:19.886Z,8.13
2018-02-13T13:36:52.391Z,7.88
2018-02-13T13:39:24.881Z,8.07
2018-02-13T13:41:57.413Z,7.79
2018-02-13T13:44:29.928Z,7.94
2018-02-13T13:47:02.451Z,8.10
2018-02-13T13:49:34.944Z,7.96
2018-02-13T13:52:07.464Z,8.09
2018-02-13T13:54:39.964Z,8.11
2018-02-13T13:57:12.486Z,8.10
2018-02-13T13:59:44.967Z,8.08
2018-02-13T14:02:17.468Z,7.99
2018-02-13T14:04:49.956Z,7.72
2018-02-13T14:07:22.519Z,8.10
2018-02-13T14:09:54.995Z,8.30
2018-02-13T14:12:27.521Z,8.32
2018-02-13T14:15:00.024Z,8.14
2018-02-13T14:17:34.296Z,8.39
2018-02-13T14:20:06.790Z,8.47
2018-02-13T14:22:40.494Z,8.58
2018-02-13T14:25:13.017Z,8.38
2018-02-13T14:27:45.514Z,8.40
2018-02-13T14:30:18.017Z,8.47
2018-02-13T14:32:50.504Z,8.33
2018-02-13T14:35:23.034Z,8.48
2018-02-13T14:37:55.516Z,8.52
2018-02-13T14:40:28.031Z,8.34
2018-02-13T14:43:00.518Z,8.43
2018-02-13T14:45:33.017Z,8.31
2018-02-13T14:48:05.615Z,8.17
2018-02-13T14:50:38.138Z,8.21
2018-02-13T14:53:10.623Z,8.03
2018-02-13T14:55:43.131Z,8.13
2018-02-13T14:58:16.062Z,8.11
2018-02-13T15:00:48.886Z,8.06
2018-02-13T15:03:21.394Z,7.88
2018-02-13T15:05:53.912Z,7.79
2018-02-13T15:08:26.411Z,7.75
2018-02-13T15:10:58.911Z,7.68
2018-02-13T15:13:31.401Z,7.80
2018-02-13T15:16:03.920Z,7.85
2018-02-13T15:18:36.471Z,7.80
2018-02-13T15:21:08.964Z,7.71
2018-02-13T15:23:41.455Z,7.56
2018-02-13T15:26:13.970Z,7.62
2018-02-13T15:28:46.502Z,7.66
2018-02-13T15:31:19.009Z,7.57
2018-02-13T15:33:51.494Z,7.63
2018-02-13T15:36:24.009Z,7.72
2018-02-13T15:38:56.523Z,7.65
2018-02-13T15:41:29.040Z,7.57
2018-02-13T15:44:01.536Z,7.44
2018-02-13T15:46:34.082Z,7.43
2018-02-13T15:49:06.577Z,7.30
2018-02-13T15:51:39.136Z,7.20
2018-02-13T15:54:11.682Z,7.11
2018-02-13T15:56:44.193Z,7.02
2018-02-13T15:59:16.705Z,7.03
2018-02-13T16:01:49.325Z,6.83
2018-02-13T16:04:21.817Z,6.79
2018-02-13T16:06:54.326Z,6.79
2018-02-13T16:09:26.885Z,6.76
2018-02-13T16:11:59.394Z,6.72
2018-02-13T16:14:31.885Z,6.62
2018-02-13T16:17:04.791Z,6.55
2018-02-13T16:19:37.366Z,6.49
2018-02-13T16:22:09.875Z,6.38
2018-02-13T16:24:42.636Z,6.25
2018-02-13T16:27:16.510Z,6.15
2018-02-13T16:29:49.372Z,6.04
2018-02-13T16:32:24.741Z,5.96
2018-02-13T16:34:57.249Z,5.82
2018-02-13T16:37:33.011Z,5.70
2018-02-13T16:40:06.080Z,5.61
2018-02-13T16:42:38.594Z,5.50
2018-02-13T16:45:14.652Z,5.41
2018-02-13T16:47:47.265Z,5.29
2018-02-13T16:50:19.850Z,5.21
2018-02-13T16:52:53.034Z,5.12
2018-02-13T16:55:27.783Z,5.05
2018-02-13T16:58:00.318Z,5.00
2018-02-13T17:00:37.691Z,4.97
2018-02-13T17:03:10.254Z,4.87
2018-02-13T17:05:42.791Z,4.80
2018-02-13T17:08:15.307Z,4.76
2018-02-13T17:10:47.816Z,4.74
2018-02-13T17:13:20.337Z,4.68
2018-02-13T17:15:52.857Z,4.64
2018-02-13T17:18:25.375Z,4.63
2018-02-13T17:20:57.866Z,4.61
2018-02-13T17:23:30.388Z,4.58
2018-02-13T17:26:02.878Z,4.54
2018-02-13T17:28:35.402Z,4.52
2018-02-13T17:31:07.902Z,4.49
2018-02-13T17:33:40.426Z,4.46
2018-02-13T17:36:12.917Z,4.39
2018-02-13T17:38:45.441Z,4.35
2018-02-13T17:41:17.975Z,4.35
2018-02-13T17:43:50.546Z,4.33
2018-02-13T17:46:23.096Z,4.31
2018-02-13T17:48:55.595Z,4.28
2018-02-13T17:51:28.135Z,4.24
2018-02-13T17:54:00.633Z,4.20
2018-02-13T17:59:11.949Z,4.14
2018-02-13T18:01:44.692Z,4.13
2018-02-13T18:04:17.200Z,4.07
2018-02-13T18:06:49.729Z,4.03
2018-02-13T18:09:22.237Z,4.03
2018-02-13T18:11:54.753Z,4.01
2018-02-13T18:14:27.301Z,3.99
2018-02-13T18:16:59.835Z,3.96
2018-02-13T18:19:32.335Z,3.87
2018-02-13T18:22:04.846Z,3.77
2018-02-13T18:24:37.348Z,3.75
2018-02-13T18:27:09.873Z,3.75
2018-02-13T18:29:42.364Z,3.71
2018-02-13T18:32:14.896Z,3.69
2018-02-13T18:34:47.410Z,3.68
2018-02-13T18:37:20.006Z,3.68
2018-02-13T18:39:52.506Z,3.65
2018-02-13T18:42:25.026Z,3.63
2018-02-13T18:44:57.525Z,3.60
2018-02-13T18:47:30.059Z,3.58
2018-02-13T18:50:02.572Z,3.55
2018-02-13T18:55:07.559Z,3.52
2018-02-13T18:57:40.080Z,3.53
2018-02-13T19:00:13.595Z,3.51
2018-02-13T19:02:46.109Z,3.56
2018-02-13T19:05:18.994Z,3.55
2018-02-13T19:07:57.858Z,3.54
2018-02-13T19:10:31.023Z,3.49
2018-02-13T19:13:03.602Z,3.39
2018-02-13T19:15:36.112Z,3.35
2018-02-13T19:18:08.712Z,3.31
2018-02-13T19:20:41.238Z,3.31
2018-02-13T19:23:13.794Z,3.28
2018-02-13T19:25:46.284Z,3.23
2018-02-13T19:28:18.811Z,3.22
2018-02-13T19:30:51.305Z,3.21
2018-02-13T19:33:23.832Z,3.19
2018-02-13T19:35:56.333Z,3.18
2018-02-13T19:38:28.849Z,3.15
2018-02-13T19:41:01.357Z,3.12
2018-02-13T19:43:33.867Z,3.11
2018-02-13T19:46:06.440Z,3.09
2018-02-13T19:48:38.964Z,3.08
2018-02-13T19:51:11.545Z,3.05
2018-02-13T19:53:44.073Z,3.03
2018-02-13T19:56:16.582Z,2.99
2018-02-13T19:58:49.105Z,2.94
2018-02-13T20:01:21.625Z,2.95
2018-02-13T20:03:54.151Z,2.96
2018-02-13T20:06:26.646Z,2.96
2018-02-13T20:08:59.166Z,2.94
2018-02-13T20:11:31.685Z,2.92
2018-02-13T20:14:04.212Z,2.86
2018-02-13T20:16:36.722Z,2.85
2018-02-13T20:19:09.869Z,2.80
2018-02-13T20:21:42.377Z,2.79
2018-02-13T20:24:15.947Z,2.73
2018-02-13T20:26:48.840Z,2.72
2018-02-13T20:29:21.353Z,2.76
2018-02-13T20:31:53.878Z,2.77
2018-02-13T20:34:28.356Z,2.76
2018-02-13T20:37:00.924Z,2.78
2018-02-13T20:39:33.724Z,2.78
2018-02-13T20:42:06.256Z,2.77
2018-02-13T20:44:38.778Z,2.77
2018-02-13T20:47:11.277Z,2.76
2018-02-13T20:49:43.796Z,2.71
2018-02-13T20:52:16.287Z,2.67
2018-02-13T20:54:51.282Z,2.66
2018-02-13T20:57:25.576Z,2.62
2018-02-13T21:00:01.451Z,2.61
2018-02-13T21:02:34.054Z,2.58
2018-02-13T21:05:06.608Z,2.58
2018-02-13T21:07:41.276Z,2.53
2018-02-13T21:10:22.275Z,2.49
2018-02-13T21:12:58.603Z,2.49
2018-02-13T21:15:31.230Z,2.47
2018-02-13T21:18:04.051Z,2.47
2018-02-13T21:20:36.549Z,2.44
2018-02-13T21:23:09.091Z,2.45
2018-02-13T21:25:41.593Z,2.43
2018-02-13T21:28:14.114Z,2.42
2018-02-13T21:30:46.613Z,2.41
2018-02-13T21:33:19.171Z,2.40
2018-02-13T21:35:51.695Z,2.35
2018-02-13T21:38:24.216Z,2.33
2018-02-13T21:40:56.722Z,2.29
2018-02-13T21:43:29.407Z,2.25
2018-02-13T21:46:01.906Z,2.24
2018-02-13T21:48:34.453Z,2.22
2018-02-13T21:51:06.986Z,2.22
2018-02-13T21:53:39.568Z,2.20
2018-02-13T21:56:12.059Z,2.20
2018-02-13T21:58:44.589Z,2.20
2018-02-13T22:01:17.162Z,2.15
2018-02-13T22:03:49.683Z,2.12
2018-02-13T22:06:22.175Z,2.07
2018-02-13T22:08:54.686Z,2.08
2018-02-13T22:11:27.248Z,2.06
2018-02-13T22:13:59.790Z,2.06
2018-02-13T22:16:32.293Z,2.05
2018-02-13T22:19:04.816Z,2.00
2018-02-13T22:21:37.305Z,1.97
2018-02-13T22:24:09.823Z,1.95
2018-02-13T22:26:43.447Z,1.93
2018-02-13T22:29:16.683Z,1.91
2018-02-13T22:31:49.277Z,1.87
2018-02-13T22:34:21.807Z,1.84
2018-02-13T22:36:54.311Z,1.83
2018-02-13T22:39:26.827Z,1.82
2018-02-13T22:41:59.332Z,1.77
2018-02-13T22:44:32.527Z,1.78
2018-02-13T22:47:06.496Z,1.75
2018-02-13T22:49:39.876Z,1.70
2018-02-13T22:52:12.377Z,1.69
2018-02-13T22:54:44.904Z,1.66
2018-02-13T22:57:17.392Z,1.66
2018-02-13T22:59:49.917Z,1.65
2018-02-13T23:02:22.420Z,1.64
2018-02-13T23:04:54.995Z,1.60
2018-02-13T23:07:27.479Z,1.57
2018-02-13T23:09:59.997Z,1.55
2018-02-13T23:12:32.493Z,1.52
2018-02-13T23:15:05.000Z,1.49
2018-02-13T23:17:37.500Z,1.50
2018-02-13T23:20:10.032Z,1.40
2018-02-13T23:22:42.547Z,1.47
2018-02-13T23:25:15.074Z,1.42
2018-02-13T23:27:47.594Z,1.38
2018-02-13T23:30:20.108Z,1.36
2018-02-13T23:32:52.632Z,1.37
2018-02-13T23:35:25.156Z,1.36
2018-02-13T23:37:57.688Z,1.34
2018-02-13T23:40:30.206Z,1.36
2018-02-13T23:43:02.714Z,1.33
2018-02-13T23:45:35.229Z,1.25
2018-02-13T23:48:07.732Z,1.22
2018-02-13T23:50:40.235Z,1.24
2018-02-13T23:53:12.752Z,1.29
2018-02-13T23:55:45.276Z,1.27
2018-02-13T23:58:17.798Z,1.27
